»·PEaware :: N365EA KSAN-KSBA

N365EA :: KSAN-KSBA

FLIGHT INFORMATION

Flight Status: Arrived
Operator: Privately registered:
United States
More flights under this callsign
Pilot: Anonymous 24416 (24416)
Aircraft: CESSNA 550 CITATION 2/S2/BRAVO
(C550)
More flights by this aircraft type
Origin: KSAN San Diego Intl-Lindbergh
United States
Destination: KSBA Santa Barbara Mun
United States
More flights between these airports :: More routes between these airports
Route: +
File this flight plan on PilotEdge
Remarks:
Altitude:
(Current/Filed)
12,500ft
Speed:
(Current/Filed)
0kts
Departed: 01-Jan-20 06:31 PM
Arrived: 01-Jan-20 07:23 PM
Distance/Time
Traveled:
167nm/0:51
Distance/Time
To Go:
Arrived

Flight Plot

Page will automatically refresh every two minutes.

Flight plan parsing failed; only flown route is shown


Map Options




Map Legend


Flown Route
Filed Route
Departure Airport
Arrival Airport
Navaid (VOR, NDB)
Fix

Horizontal Profiles

Position Reports

Time Latitude Longitude Heading Altitude Ground
Speed
01-Jan-20 18:21 32.732420 -117.176641 193 23ft 0kts
01-Jan-20 18:22 32.732420 -117.176641 193 23ft 0kts
01-Jan-20 18:23 32.732420 -117.176641 193 23ft 0kts
01-Jan-20 18:24 32.732420 -117.176641 193 23ft 0kts
01-Jan-20 18:25 32.732420 -117.176641 193 23ft 0kts
01-Jan-20 18:26 32.731338 -117.176484 111 21ft 5kts
01-Jan-20 18:27 32.730926 -117.175494 134 22ft 0kts
01-Jan-20 18:28 32.730926 -117.175494 134 22ft 0kts
01-Jan-20 18:29 32.730111 -117.175358 260 21ft 6kts
01-Jan-20 18:30 32.734946 -117.195316 285 383ft 125kts
01-Jan-20 18:31 32.764346 -117.229350 322 1592ft 163kts
01-Jan-20 18:32 32.808629 -117.249572 331 2741ft 184kts
01-Jan-20 18:33 32.847159 -117.292288 316 3765ft 189kts
01-Jan-20 18:34 32.885647 -117.332086 316 4754ft 178kts
01-Jan-20 18:35 32.921816 -117.369481 316 5737ft 168kts
01-Jan-20 18:36 32.959041 -117.408064 318 6740ft 189kts
01-Jan-20 18:37 33.000174 -117.450652 319 7729ft 195kts
01-Jan-20 18:38 33.039299 -117.491241 320 8696ft 179kts
01-Jan-20 18:39 33.075622 -117.528949 321 9662ft 176kts
01-Jan-20 18:40 33.118071 -117.573022 322 10669ft 222kts
01-Jan-20 18:41 33.167036 -117.623961 322 11690ft 241kts
01-Jan-20 18:42 33.218439 -117.677582 321 12489ft 249kts
01-Jan-20 18:43 33.269389 -117.730803 321 12493ft 240kts
01-Jan-20 18:44 33.319287 -117.782998 321 12529ft 236kts
01-Jan-20 18:45 33.368440 -117.834497 321 12525ft 235kts
01-Jan-20 18:46 33.417595 -117.886086 321 12521ft 235kts
01-Jan-20 18:47 33.466644 -117.937644 321 12518ft 234kts
01-Jan-20 18:48 33.515620 -117.989203 321 12515ft 234kts
01-Jan-20 18:49 33.564537 -118.040774 321 12512ft 234kts
01-Jan-20 18:50 33.613864 -118.092814 321 12509ft 249kts
01-Jan-20 18:51 33.668760 -118.150870 321 12507ft 271kts
01-Jan-20 18:52 33.723973 -118.209411 321 12505ft 260kts
01-Jan-20 18:53 33.778023 -118.266790 321 12505ft 257kts
01-Jan-20 18:54 33.831326 -118.323459 321 12507ft 255kts
01-Jan-20 18:55 33.884401 -118.379994 321 12510ft 255kts
01-Jan-20 18:56 33.933634 -118.440873 301 12513ft 262kts
01-Jan-20 18:57 33.961877 -118.522327 298 12511ft 264kts
01-Jan-20 18:58 33.988298 -118.604888 297 12514ft 264kts
01-Jan-20 18:59 34.014372 -118.686960 297 12528ft 264kts
01-Jan-20 19:00 34.048631 -118.761510 332 12533ft 252kts
01-Jan-20 19:01 34.112618 -118.791114 341 12112ft 230kts
01-Jan-20 19:02 34.169991 -118.812479 340 11038ft 208kts
01-Jan-20 19:03 34.229202 -118.834296 340 9964ft 231kts
01-Jan-20 19:04 34.291746 -118.857317 339 8879ft 238kts
01-Jan-20 19:05 34.350333 -118.886037 302 8538ft 217kts
01-Jan-20 19:06 34.368768 -118.954064 287 8537ft 209kts
01-Jan-20 19:07 34.382772 -119.030241 285 8535ft 235kts
01-Jan-20 19:08 34.395561 -119.103803 285 8537ft 223kts
01-Jan-20 19:09 34.408678 -119.179330 285 8536ft 233kts
01-Jan-20 19:10 34.422081 -119.256968 285 8536ft 237kts
01-Jan-20 19:11 34.435335 -119.333839 284 8524ft 208kts
01-Jan-20 19:12 34.445237 -119.392149 277 8402ft 161kts
01-Jan-20 19:14 34.441740 -119.448309 268 7487ft 178kts
01-Jan-20 19:15 34.433409 -119.507640 268 6740ft 171kts
01-Jan-20 19:16 34.430192 -119.561907 281 5244ft 154kts
01-Jan-20 19:17 34.431899 -119.613903 269 3914ft 153kts
01-Jan-20 19:18 34.430359 -119.661232 274 3548ft 133kts
01-Jan-20 19:19 34.430087 -119.705227 274 2795ft 130kts
01-Jan-20 19:20 34.429863 -119.749494 270 1914ft 132kts
01-Jan-20 19:21 34.428864 -119.794053 267 893ft 127kts
01-Jan-20 19:22 34.427881 -119.836622 266 29ft 116kts
01-Jan-20 19:23 34.426905 -119.854029 148 15ft 10kts
01-Jan-20 19:24 34.426649 -119.853750 134 15ft 0kts
01-Jan-20 19:25 34.426572 -119.853654 133 15ft 4kts
01-Jan-20 19:26 34.426431 -119.851114 88 15ft 10kts
01-Jan-20 19:27 34.426524 -119.846915 89 15ft 10kts
01-Jan-20 19:28 34.426601 -119.843153 88 15ft 11kts
01-Jan-20 19:29 34.426691 -119.838998 88 13ft 12kts
01-Jan-20 19:30 34.424526 -119.837662 166 13ft 7kts
01-Jan-20 19:31 34.422802 -119.837243 165 14ft 5kts
01-Jan-20 19:32 34.420450 -119.836518 164 14ft 9kts
01-Jan-20 19:33 34.421316 -119.836177 346 14ft 8kts
01-Jan-20 19:34 34.421611 -119.836266 344 14ft 0kts
01-Jan-20 19:35 34.421611 -119.836266 344 14ft 0kts
01-Jan-20 19:35 34.421611 -119.836266 344 14ft 0kts
01-Jan-20 19:37 34.421611 -119.836266 344 14ft 0kts

Navigation Log

Ident Type
Flight plan parsing failed, navigation log unavailable